createdAt,value
2018-01-10T00:00:17.941Z,95.20
2018-01-10T00:02:46.064Z,94.30
2018-01-10T00:05:14.240Z,95.00
2018-01-10T00:07:42.393Z,95.40
2018-01-10T00:10:10.550Z,95.20
2018-01-10T00:12:38.712Z,95.10
2018-01-10T00:15:06.860Z,95.60
2018-01-10T00:17:35.002Z,95.60
2018-01-10T00:20:03.146Z,95.00
2018-01-10T00:22:31.288Z,94.70
2018-01-10T00:24:59.444Z,94.80
2018-01-10T00:27:27.580Z,94.90
2018-01-10T00:29:56.478Z,94.70
2018-01-10T00:32:25.373Z,94.90
2018-01-10T00:34:54.281Z,94.90
2018-01-10T00:37:23.171Z,94.60
2018-01-10T00:39:51.318Z,94.60
2018-01-10T00:42:19.464Z,94.40
2018-01-10T00:44:48.361Z,94.40
2018-01-10T00:47:17.263Z,94.40
2018-01-10T00:49:46.165Z,94.20
2018-01-10T00:52:15.097Z,94.00
2018-01-10T00:54:43.990Z,93.70
2018-01-10T00:57:12.132Z,93.70
2018-01-10T00:59:40.310Z,93.00
2018-01-10T01:02:08.457Z,92.70
2018-01-10T01:04:36.584Z,92.70
2018-01-10T01:07:04.730Z,92.60
2018-01-10T01:09:32.872Z,92.90
2018-01-10T01:12:01.012Z,93.10
2018-01-10T01:14:29.961Z,93.40
2018-01-10T01:16:58.108Z,93.50
2018-01-10T01:19:28.440Z,93.50
2018-01-10T01:21:56.613Z,93.50
2018-01-10T01:24:25.599Z,93.50
2018-01-10T01:26:55.236Z,93.60
2018-01-10T01:29:23.402Z,93.80
2018-01-10T01:31:51.546Z,94.10
2018-01-10T01:34:19.689Z,94.50
2018-01-10T01:36:47.820Z,95.10
2018-01-10T01:39:15.970Z,95.70
2018-01-10T01:41:44.133Z,95.50
2018-01-10T01:44:12.265Z,95.60
2018-01-10T01:46:40.396Z,95.70
2018-01-10T01:49:09.297Z,96.10
2018-01-10T01:51:38.227Z,96.40
2018-01-10T01:54:07.110Z,95.70
2018-01-10T01:56:36.021Z,96.20
2018-01-10T01:59:04.912Z,95.70
2018-01-10T02:01:33.827Z,95.70
2018-01-10T02:04:02.714Z,95.40
2018-01-10T02:06:30.860Z,95.30
2018-01-10T02:08:58.988Z,95.50
2018-01-10T02:11:27.138Z,95.50
2018-01-10T02:13:56.055Z,96.20
2018-01-10T02:16:24.955Z,96.50
2018-01-10T02:18:53.100Z,96.50
2018-01-10T02:21:21.245Z,96.80
2018-01-10T02:23:49.389Z,97.10
2018-01-10T02:26:17.528Z,97.20
2018-01-10T02:28:45.680Z,97.40
2018-01-10T02:31:13.821Z,97.50
2018-01-10T02:33:41.964Z,97.40
2018-01-10T02:36:10.099Z,96.90
2018-01-10T02:38:39.004Z,96.70
2018-01-10T02:41:07.141Z,96.70
2018-01-10T02:43:35.280Z,96.70
2018-01-10T02:46:03.413Z,96.80
2018-01-10T02:48:31.560Z,97.00
2018-01-10T02:50:59.692Z,97.50
2018-01-10T02:53:27.863Z,97.90
2018-01-10T02:55:55.987Z,97.70
2018-01-10T02:58:24.908Z,98.20
2018-01-10T03:00:53.032Z,98.10
2018-01-10T03:03:21.177Z,97.60
2018-01-10T03:05:49.312Z,97.20
2018-01-10T03:08:17.456Z,97.70
2018-01-10T03:10:45.584Z,97.50
2018-01-10T03:13:13.755Z,97.00
2018-01-10T03:15:41.903Z,97.30
2018-01-10T03:18:10.808Z,95.50
2018-01-10T03:20:38.933Z,95.50
2018-01-10T03:23:07.845Z,95.40
2018-01-10T03:25:35.986Z,95.30
2018-01-10T03:28:04.631Z,95.10
2018-01-10T03:30:32.753Z,95.40
2018-01-10T03:33:01.665Z,96.40
2018-01-10T03:35:29.849Z,96.40
2018-01-10T03:37:57.960Z,96.70
2018-01-10T03:40:26.093Z,97.00
2018-01-10T03:42:54.265Z,96.70
2018-01-10T03:45:22.395Z,96.80
2018-01-10T03:47:51.477Z,97.20
2018-01-10T03:50:19.623Z,97.00
2018-01-10T03:52:47.755Z,96.60
2018-01-10T03:55:17.846Z,95.80
2018-01-10T03:57:45.952Z,95.80
2018-01-10T04:00:14.128Z,96.10
2018-01-10T04:02:43.129Z,96.70
2018-01-10T04:05:11.282Z,96.70
2018-01-10T04:07:39.972Z,96.30
2018-01-10T04:10:08.097Z,95.90
2018-01-10T04:12:36.244Z,95.20
2018-01-10T04:15:04.373Z,95.30
2018-01-10T04:17:32.508Z,95.40
2018-01-10T04:20:01.418Z,97.20
2018-01-10T04:22:30.331Z,96.70
2018-01-10T04:24:58.456Z,96.70
2018-01-10T04:27:26.621Z,96.70
2018-01-10T04:29:54.754Z,96.90
2018-01-10T04:32:22.919Z,96.70
2018-01-10T04:34:51.060Z,96.20
2018-01-10T04:37:19.203Z,96.80
2018-01-10T04:39:47.373Z,96.70
2018-01-10T04:42:15.494Z,96.50
2018-01-10T04:44:45.384Z,95.70
2018-01-10T04:47:14.321Z,96.20
2018-01-10T04:49:42.444Z,96.20
2018-01-10T04:52:10.602Z,96.10
2018-01-10T04:54:39.493Z,97.40
2018-01-10T04:57:09.344Z,97.10
2018-01-10T04:59:37.576Z,97.10
2018-01-10T05:02:06.482Z,97.50
2018-01-10T05:04:34.659Z,97.50
2018-01-10T05:07:02.798Z,97.30
2018-01-10T05:09:31.737Z,96.80
2018-01-10T05:11:59.876Z,96.70
2018-01-10T05:14:28.036Z,97.10
2018-01-10T05:16:56.173Z,96.90
2018-01-10T05:19:24.332Z,96.70
2018-01-10T05:21:53.231Z,97.00
2018-01-10T05:24:21.368Z,97.00
2018-01-10T05:26:49.504Z,97.10
2018-01-10T05:29:18.434Z,96.90
2018-01-10T05:31:47.456Z,97.10
2018-01-10T05:34:15.597Z,97.10
2018-01-10T05:36:44.492Z,97.00
2018-01-10T05:39:12.654Z,96.70
2018-01-10T05:41:40.788Z,97.10
2018-01-10T05:44:09.719Z,96.60
2018-01-10T05:46:37.852Z,96.60
2018-01-10T05:49:05.979Z,96.20
2018-01-10T05:51:34.117Z,96.40
2018-01-10T05:54:02.268Z,96.50
2018-01-10T05:56:30.416Z,96.70
2018-01-10T05:58:59.324Z,97.30
2018-01-10T06:01:28.225Z,97.50
2018-01-10T06:03:57.123Z,97.20
2018-01-10T06:06:26.029Z,96.70
2018-01-10T06:08:54.932Z,97.00
2018-01-10T06:11:23.845Z,97.30
2018-01-10T06:13:52.764Z,97.50
2018-01-10T06:16:20.924Z,97.50
2018-01-10T06:18:49.057Z,97.40
2018-01-10T06:21:17.200Z,97.40
2018-01-10T06:23:46.148Z,97.30
2018-01-10T06:26:14.301Z,97.30
2018-01-10T06:28:43.219Z,97.30
2018-01-10T06:31:11.356Z,97.30
2018-01-10T06:33:39.517Z,96.60
2018-01-10T06:36:08.414Z,97.00
2018-01-10T06:38:36.592Z,96.90
2018-01-10T06:41:04.714Z,96.80
2018-01-10T06:43:32.863Z,97.00
2018-01-10T06:46:01.010Z,96.80
2018-01-10T06:48:29.152Z,96.80
2018-01-10T06:50:57.363Z,96.40
2018-01-10T06:53:25.505Z,96.20
2018-01-10T06:55:53.665Z,96.50
2018-01-10T06:58:22.561Z,96.20
2018-01-10T07:00:51.496Z,96.00
2018-01-10T07:03:19.636Z,96.00
2018-01-10T07:05:47.780Z,95.90
2018-01-10T07:08:16.679Z,94.90
2018-01-10T07:10:44.829Z,94.90
2018-01-10T07:13:13.725Z,95.40
2018-01-10T07:15:42.640Z,95.50
2018-01-10T07:18:11.540Z,95.80
2018-01-10T07:20:42.368Z,95.50
2018-01-10T07:23:10.516Z,95.50
2018-01-10T07:25:38.670Z,95.80
2018-01-10T07:28:07.600Z,95.40
2018-01-10T07:30:35.739Z,95.40
2018-01-10T07:33:05.038Z,96.10
2018-01-10T07:35:34.692Z,96.50
2018-01-10T07:38:03.629Z,96.00
2018-01-10T07:40:32.295Z,95.70
2018-01-10T07:43:01.198Z,95.20
2018-01-10T07:45:30.125Z,95.80
2018-01-10T07:47:58.261Z,95.80
2018-01-10T07:50:26.403Z,96.60
2018-01-10T07:52:54.528Z,96.10
2018-01-10T07:55:22.676Z,95.60
2018-01-10T07:57:51.162Z,95.70
2018-01-10T08:00:19.324Z,96.50
2018-01-10T08:02:48.236Z,96.40
2018-01-10T08:05:16.384Z,96.40
2018-01-10T08:07:44.505Z,96.30
2018-01-10T08:10:12.661Z,95.90
2018-01-10T08:12:40.803Z,95.60
2018-01-10T08:15:09.451Z,95.60
2018-01-10T08:17:38.168Z,95.30
2018-01-10T08:20:06.337Z,96.40
2018-01-10T08:22:34.462Z,97.10
2018-01-10T08:25:02.612Z,97.50
2018-01-10T08:27:31.513Z,97.20
2018-01-10T08:29:59.704Z,97.20
2018-01-10T08:32:28.617Z,96.30
2018-01-10T08:35:00.212Z,96.30
2018-01-10T08:37:28.345Z,95.80
2018-01-10T08:39:56.490Z,95.40
2018-01-10T08:42:24.617Z,95.20
2018-01-10T08:44:52.758Z,95.10
2018-01-10T08:47:20.942Z,95.00
2018-01-10T08:49:49.071Z,95.10
2018-01-10T08:52:17.327Z,95.00
2018-01-10T08:54:45.464Z,95.20
2018-01-10T08:57:13.610Z,95.00
2018-01-10T08:59:41.740Z,95.20
2018-01-10T09:02:09.884Z,95.10
2018-01-10T09:04:38.049Z,95.30
2018-01-10T09:07:06.220Z,95.20
2018-01-10T09:09:34.365Z,95.30
2018-01-10T09:12:02.516Z,95.50
2018-01-10T09:14:31.463Z,95.50
2018-01-10T09:16:59.603Z,95.50
2018-01-10T09:19:28.548Z,95.50
2018-01-10T09:21:57.568Z,95.40
2018-01-10T09:24:26.263Z,95.30
2018-01-10T09:26:55.473Z,95.00
2018-01-10T09:29:23.593Z,95.10
2018-01-10T09:31:51.777Z,94.50
2018-01-10T09:34:20.666Z,94.10
2018-01-10T09:36:49.575Z,93.90
2018-01-10T09:39:18.494Z,93.80
2018-01-10T09:41:46.648Z,93.80
2018-01-10T09:44:15.836Z,93.70
2018-01-10T09:46:43.976Z,93.70
2018-01-10T09:49:12.876Z,93.80
2018-01-10T09:51:41.836Z,93.80
2018-01-10T09:54:09.965Z,93.80
2018-01-10T09:56:38.109Z,93.70
2018-01-10T09:59:06.256Z,93.50
2018-01-10T10:01:34.417Z,93.30
2018-01-10T10:04:02.564Z,93.20
2018-01-10T10:06:30.704Z,93.20
2018-01-10T10:08:58.858Z,93.20
2018-01-10T10:11:27.016Z,93.10
2018-01-10T10:13:55.902Z,93.00
2018-01-10T10:16:24.028Z,92.80
2018-01-10T10:18:53.108Z,92.50
2018-01-10T10:21:21.269Z,91.80
2018-01-10T10:23:49.394Z,91.60
2018-01-10T10:26:17.537Z,91.30
2018-01-10T10:28:45.716Z,91.10
2018-01-10T10:31:13.832Z,90.80
2018-01-10T10:33:41.984Z,90.60
2018-01-10T10:36:10.114Z,90.40
2018-01-10T10:38:38.250Z,90.00
2018-01-10T10:41:06.397Z,89.40
2018-01-10T10:43:34.525Z,89.00
2018-01-10T10:46:03.463Z,88.80
2018-01-10T10:48:31.594Z,88.70
2018-01-10T10:51:00.513Z,88.10
2018-01-10T10:53:28.674Z,88.00
2018-01-10T10:55:56.802Z,87.10
2018-01-10T10:58:24.981Z,86.00
2018-01-10T11:00:53.882Z,84.20
2018-01-10T11:03:23.688Z,84.40
2018-01-10T11:05:53.725Z,84.10
2018-01-10T11:08:22.636Z,81.50
2018-01-10T11:10:51.514Z,80.50
2018-01-10T11:13:20.505Z,80.50
2018-01-10T11:15:48.653Z,77.20
2018-01-10T11:18:18.959Z,76.90
2018-01-10T11:20:47.090Z,78.20
2018-01-10T11:23:16.124Z,75.90
2018-01-10T11:25:44.952Z,75.90
2018-01-10T11:28:26.453Z,77.50
2018-01-10T11:30:54.610Z,77.40
2018-01-10T11:33:22.751Z,75.10
2018-01-10T11:35:50.902Z,74.40
2018-01-10T11:38:19.803Z,75.30
2018-01-10T11:40:48.698Z,76.40
2018-01-10T11:43:16.844Z,76.20
2018-01-10T11:45:44.990Z,75.40
2018-01-10T11:48:14.682Z,74.60
2018-01-10T11:50:42.796Z,74.40
2018-01-10T11:53:11.716Z,70.80
2018-01-10T11:55:39.854Z,70.70
2018-01-10T11:58:07.990Z,71.70
2018-01-10T12:00:36.139Z,70.20
2018-01-10T12:03:04.264Z,70.70
2018-01-10T12:05:32.414Z,70.60
2018-01-10T12:08:00.545Z,71.50
2018-01-10T12:10:28.690Z,71.60
2018-01-10T12:12:57.604Z,74.70
2018-01-10T12:15:26.521Z,73.40
2018-01-10T12:17:56.202Z,73.40
2018-01-10T12:20:24.396Z,73.40
2018-01-10T12:22:53.938Z,74.20
2018-01-10T12:25:22.835Z,71.30
2018-01-10T12:27:51.749Z,72.20
2018-01-10T12:30:19.909Z,72.10
2018-01-10T12:32:48.037Z,71.90
2018-01-10T12:35:16.164Z,72.90
2018-01-10T12:37:44.321Z,73.00
2018-01-10T12:40:13.386Z,72.10
2018-01-10T12:42:43.129Z,70.50
2018-01-10T12:45:13.611Z,69.10
2018-01-10T12:47:41.772Z,68.70
2018-01-10T12:50:09.925Z,69.90
2018-01-10T12:52:38.079Z,70.10
2018-01-10T12:55:06.203Z,67.50
2018-01-10T12:57:35.119Z,64.80
2018-01-10T13:00:04.250Z,64.90
2018-01-10T13:02:32.402Z,67.00
2018-01-10T13:05:01.307Z,68.70
2018-01-10T13:07:30.249Z,68.80
2018-01-10T13:09:58.389Z,68.60
2018-01-10T13:12:26.553Z,67.70
2018-01-10T13:14:54.697Z,67.70
2018-01-10T13:17:23.472Z,66.90
2018-01-10T13:19:51.601Z,65.40
2018-01-10T13:22:19.756Z,65.40
2018-01-10T13:24:47.909Z,65.90
2018-01-10T13:27:16.067Z,67.50
2018-01-10T13:29:44.218Z,66.20
2018-01-10T13:32:12.389Z,66.40
2018-01-10T13:34:41.248Z,66.90
2018-01-10T13:37:09.388Z,65.60
2018-01-10T13:39:38.056Z,67.40
2018-01-10T13:42:06.997Z,71.00
2018-01-10T13:44:35.125Z,70.90
2018-01-10T13:47:03.252Z,71.60
2018-01-10T13:49:31.421Z,72.80
2018-01-10T13:51:59.548Z,74.20
2018-01-10T13:54:27.695Z,75.30
2018-01-10T13:56:56.600Z,76.00
2018-01-10T13:59:25.503Z,76.00
2018-01-10T14:01:54.405Z,76.90
2018-01-10T14:04:23.322Z,76.10
2018-01-10T14:06:52.246Z,76.60
2018-01-10T14:09:20.403Z,76.60
2018-01-10T14:11:49.352Z,77.40
2018-01-10T14:14:18.421Z,77.40
2018-01-10T14:16:47.984Z,76.80
2018-01-10T14:19:17.073Z,76.80
2018-01-10T14:21:45.222Z,76.90
2018-01-10T14:24:14.132Z,75.80
2018-01-10T14:26:43.063Z,75.60
2018-01-10T14:29:11.193Z,75.60
2018-01-10T14:31:39.352Z,75.60
2018-01-10T14:34:07.489Z,74.30
2018-01-10T14:36:36.409Z,75.80
2018-01-10T14:39:05.311Z,75.20
2018-01-10T14:41:33.502Z,75.20
2018-01-10T14:44:02.454Z,75.10
2018-01-10T14:46:30.608Z,74.90
2018-01-10T14:48:58.752Z,75.80
2018-01-10T14:51:26.898Z,76.30
2018-01-10T14:53:55.041Z,76.20
2018-01-10T14:56:23.997Z,75.90
2018-01-10T14:58:52.148Z,75.90
2018-01-10T15:01:20.284Z,76.40
2018-01-10T15:03:48.449Z,78.20
2018-01-10T15:06:16.564Z,77.70
2018-01-10T15:08:44.705Z,78.80
2018-01-10T15:11:13.488Z,78.50
2018-01-10T15:13:41.655Z,78.20
2018-01-10T15:16:09.770Z,78.40
2018-01-10T15:18:37.912Z,78.80
2018-01-10T15:21:06.055Z,79.10
2018-01-10T15:23:34.848Z,78.50
2018-01-10T15:26:03.057Z,77.70
2018-01-10T15:28:31.213Z,78.70
2018-01-10T15:30:59.385Z,79.50
2018-01-10T15:33:27.510Z,79.80
2018-01-10T15:35:55.685Z,80.30
2018-01-10T15:38:24.601Z,81.10
2018-01-10T15:40:52.760Z,81.10
2018-01-10T15:43:20.911Z,80.60
2018-01-10T15:45:50.562Z,79.40
2018-01-10T15:48:18.712Z,79.30
2018-01-10T15:50:46.860Z,79.00
2018-01-10T15:53:15.007Z,80.20
2018-01-10T15:55:43.138Z,80.10
2018-01-10T15:58:11.771Z,81.50
2018-01-10T16:00:39.926Z,81.60
2018-01-10T16:03:08.085Z,81.80
2018-01-10T16:05:36.213Z,82.00
2018-01-10T16:08:04.363Z,81.40
2018-01-10T16:10:32.505Z,81.20
2018-01-10T16:13:00.673Z,81.90
2018-01-10T16:15:28.830Z,82.00
2018-01-10T16:17:56.971Z,82.30
2018-01-10T16:20:25.905Z,82.60
2018-01-10T16:22:54.075Z,82.60
2018-01-10T16:25:22.989Z,82.10
2018-01-10T16:27:51.125Z,82.10
2018-01-10T16:30:19.286Z,81.40
2018-01-10T16:32:47.468Z,81.00
2018-01-10T16:35:15.603Z,81.10
2018-01-10T16:37:43.737Z,81.20
2018-01-10T16:40:11.884Z,81.50
2018-01-10T16:42:40.796Z,83.00
2018-01-10T16:45:09.729Z,84.90
2018-01-10T16:47:37.874Z,84.80
2018-01-10T16:50:06.601Z,86.20
2018-01-10T16:52:34.772Z,87.50
2018-01-10T16:55:03.687Z,89.40
2018-01-10T16:57:31.840Z,89.40
2018-01-10T17:00:00.022Z,87.80
2018-01-10T17:02:28.209Z,88.60
2018-01-10T17:04:56.359Z,88.90
2018-01-10T17:07:24.504Z,89.00
2018-01-10T17:09:53.431Z,89.30
2018-01-10T17:12:21.558Z,89.20
2018-01-10T17:14:49.718Z,89.70
2018-01-10T17:17:17.924Z,90.20
2018-01-10T17:19:46.163Z,90.30
2018-01-10T17:22:15.060Z,90.60
2018-01-10T17:24:43.977Z,90.70
2018-01-10T17:27:12.896Z,91.50
2018-01-10T17:29:41.378Z,91.50
2018-01-10T17:32:09.640Z,91.10
2018-01-10T17:34:39.783Z,92.50
2018-01-10T17:37:09.639Z,92.90
2018-01-10T17:39:38.406Z,92.90
2018-01-10T17:42:07.337Z,93.10
2018-01-10T17:44:35.470Z,93.10
2018-01-10T17:47:03.618Z,94.10
2018-01-10T17:49:31.755Z,94.10
2018-01-10T17:51:59.906Z,94.00
2018-01-10T17:54:28.076Z,93.70
2018-01-10T17:56:56.229Z,94.10
2018-01-10T17:59:25.128Z,94.30
2018-01-10T18:01:54.066Z,94.50
2018-01-10T18:04:22.205Z,94.50
2018-01-10T18:06:50.348Z,94.60
2018-01-10T18:09:18.496Z,95.00
2018-01-10T18:11:46.655Z,94.50
2018-01-10T18:14:14.806Z,93.80
2018-01-10T18:16:43.723Z,93.10
2018-01-10T18:19:11.874Z,93.10
2018-01-10T18:21:40.015Z,92.20
2018-01-10T18:24:08.181Z,92.40
2018-01-10T18:26:36.332Z,92.60
2018-01-10T18:29:04.505Z,92.90
2018-01-10T18:31:33.220Z,93.30
2018-01-10T18:34:01.405Z,93.10
2018-01-10T18:36:31.207Z,92.40
2018-01-10T18:39:00.127Z,93.00
2018-01-10T18:41:29.019Z,92.90
2018-01-10T18:43:57.939Z,93.40
2018-01-10T18:46:26.836Z,93.60
2018-01-10T18:48:55.034Z,93.60
2018-01-10T18:51:23.156Z,93.50
2018-01-10T18:53:51.321Z,93.60
2018-01-10T18:56:19.466Z,93.40
2018-01-10T18:58:48.374Z,94.20
2018-01-10T19:01:16.514Z,94.10
2018-01-10T19:03:44.644Z,94.10
2018-01-10T19:06:13.564Z,94.60
2018-01-10T19:08:42.490Z,94.90
2018-01-10T19:11:10.668Z,94.90
2018-01-10T19:13:38.850Z,95.40
2018-01-10T19:16:07.161Z,95.30
2018-01-10T19:18:35.309Z,95.40
2018-01-10T19:21:04.226Z,95.00
2018-01-10T19:23:33.143Z,94.80
2018-01-10T19:26:01.289Z,94.80
2018-01-10T19:28:29.414Z,94.90
2018-01-10T19:30:57.585Z,94.90
2018-01-10T19:33:26.471Z,95.20
2018-01-10T19:35:55.434Z,95.10
2018-01-10T19:38:23.591Z,95.10
2018-01-10T19:40:51.786Z,95.10
2018-01-10T19:43:19.914Z,95.30
2018-01-10T19:45:48.053Z,95.40
2018-01-10T19:48:16.228Z,95.90
2018-01-10T19:50:45.145Z,95.90
2018-01-10T19:53:14.060Z,95.70
2018-01-10T19:55:42.202Z,95.70
2018-01-10T19:58:11.122Z,95.80
2018-01-10T20:00:40.044Z,96.60
2018-01-10T20:03:08.164Z,96.60
2018-01-10T20:05:36.337Z,97.20
2018-01-10T20:08:04.603Z,97.30
2018-01-10T20:10:32.730Z,96.80
2018-01-10T20:13:00.874Z,96.90
2018-01-10T20:15:29.010Z,96.60
2018-01-10T20:17:57.192Z,96.70
2018-01-10T20:20:25.340Z,96.20
2018-01-10T20:22:53.500Z,96.40
2018-01-10T20:25:21.675Z,96.20
2018-01-10T20:27:50.670Z,97.30
2018-01-10T20:30:18.830Z,97.10
2018-01-10T20:32:48.533Z,98.00
2018-01-10T20:35:16.678Z,97.80
2018-01-10T20:37:45.615Z,98.10
2018-01-10T20:40:13.768Z,98.10
2018-01-10T20:42:41.923Z,98.00
2018-01-10T20:45:15.606Z,97.50
2018-01-10T20:47:43.728Z,97.30
2018-01-10T20:50:11.901Z,97.00
2018-01-10T20:52:40.085Z,96.80
2018-01-10T20:55:08.220Z,96.70
2018-01-10T20:57:37.166Z,97.60
2018-01-10T21:00:05.303Z,97.60
2018-01-10T21:02:34.245Z,98.10
2018-01-10T21:05:02.381Z,98.10
2018-01-10T21:07:30.553Z,97.50
2018-01-10T21:09:58.702Z,96.60
2018-01-10T21:12:27.718Z,97.50
2018-01-10T21:14:55.836Z,98.30
2018-01-10T21:17:24.008Z,98.70
2018-01-10T21:19:52.188Z,99.20
2018-01-10T21:22:20.333Z,99.90
2018-01-10T21:24:48.497Z,99.60
2018-01-10T21:27:17.406Z,99.90
2018-01-10T21:29:46.329Z,99.90
2018-01-10T21:32:14.466Z,99.90
2018-01-10T21:34:42.657Z,99.90
2018-01-10T21:37:10.814Z,99.90
2018-01-10T21:39:38.968Z,99.30
2018-01-10T21:42:07.206Z,98.90
2018-01-10T21:44:35.311Z,98.90
2018-01-10T21:47:03.444Z,98.70
2018-01-10T21:49:31.617Z,98.50
2018-01-10T21:51:59.790Z,98.10
2018-01-10T21:54:28.726Z,98.10
2018-01-10T21:56:56.877Z,98.10
2018-01-10T21:59:26.670Z,97.30
2018-01-10T22:01:54.802Z,97.30
2018-01-10T22:04:22.965Z,97.90
2018-01-10T22:06:51.117Z,97.30
2018-01-10T22:09:20.021Z,96.40
2018-01-10T22:11:48.188Z,96.40
2018-01-10T22:14:16.315Z,97.10
2018-01-10T22:16:45.324Z,97.40
2018-01-10T22:19:13.462Z,96.90
2018-01-10T22:21:41.659Z,96.40
2018-01-10T22:24:09.810Z,97.80
2018-01-10T22:26:38.700Z,98.50
2018-01-10T22:29:07.621Z,99.20
2018-01-10T22:31:35.774Z,99.20
2018-01-10T22:34:03.917Z,99.20
2018-01-10T22:36:32.096Z,98.20
2018-01-10T22:39:00.226Z,97.20
2018-01-10T22:41:28.388Z,96.90
2018-01-10T22:43:56.550Z,97.00
2018-01-10T22:46:24.718Z,97.80
2018-01-10T22:48:53.631Z,97.60
2018-01-10T22:51:21.764Z,97.40
2018-01-10T22:53:49.923Z,97.30
2018-01-10T22:56:18.057Z,96.40
2018-01-10T22:58:46.205Z,97.60
2018-01-10T23:01:14.896Z,98.10
2018-01-10T23:03:43.037Z,98.80
2018-01-10T23:06:11.944Z,99.20
2018-01-10T23:08:40.864Z,99.40
2018-01-10T23:11:09.794Z,99.50
2018-01-10T23:13:37.941Z,99.40
2018-01-10T23:16:06.851Z,99.30
2018-01-10T23:18:34.993Z,99.30
2018-01-10T23:21:03.143Z,98.80
2018-01-10T23:23:31.276Z,98.00
2018-01-10T23:25:59.441Z,97.10
2018-01-10T23:28:27.576Z,96.50
2018-01-10T23:30:56.482Z,97.40
2018-01-10T23:33:25.369Z,96.80
2018-01-10T23:35:54.300Z,96.40
2018-01-10T23:38:22.468Z,96.30
2018-01-10T23:40:51.382Z,96.50
2018-01-10T23:43:20.307Z,96.90
2018-01-10T23:45:48.453Z,96.90
2018-01-10T23:48:16.585Z,97.40
2018-01-10T23:50:44.741Z,98.00
2018-01-10T23:53:13.659Z,98.00
2018-01-10T23:55:41.795Z,98.00
2018-01-10T23:58:09.940Z,97.90
